Terminal Aerodrome Forecast
Issued by NWS Paducah, KY

Home | Current Version | Previous Version | Text Only | Print | Product List | Glossary On
Versions: 1 2 3 4 5 6 7 8 9 10 11 12 13 14 15 16 17 18 19 20 21 22 23
000
FTUS43 KPAH 180800 AAA
TAFPAH
TAF AMD
KPAH 180842Z 1809/1906 33003KT 4SM BR OVC004
      TEMPO 1809/1812 2SM BR
     FM181300 29003KT 6SM BR SCT004 BKN015
     FM181600 26005KT P6SM SCT010 BKN025
     FM190000 VRB02KT P6SM SCT030 BKN150=

USA.gov is the U.S. government's official web portal to all federal, state and local government web resources and services.